sensor_id;sensor_type;location;lat;lon;timestamp;P1;durP1;ratioP1;P2;durP2;ratioP2
52854;SDS011;38719;51.418;7.286;2023-05-19T00:02:17;10.52;;;4.68;;
52854;SDS011;38719;51.418;7.286;2023-05-19T00:04:46;9.45;;;4.63;;
52854;SDS011;38719;51.418;7.286;2023-05-19T00:07:17;9.43;;;4.63;;
52854;SDS011;38719;51.418;7.286;2023-05-19T00:09:46;9.32;;;4.90;;
52854;SDS011;38719;51.418;7.286;2023-05-19T00:12:14;14.15;;;4.85;;
52854;SDS011;38719;51.418;7.286;2023-05-19T00:14:42;9.25;;;4.78;;
52854;SDS011;38719;51.418;7.286;2023-05-19T00:17:10;9.80;;;4.70;;
52854;SDS011;38719;51.418;7.286;2023-05-19T00:19:38;13.27;;;4.85;;
52854;SDS011;38719;51.418;7.286;2023-05-19T00:22:05;10.48;;;4.63;;
52854;SDS011;38719;51.418;7.286;2023-05-19T00:24:34;10.80;;;5.10;;
52854;SDS011;38719;51.418;7.286;2023-05-19T00:27:02;10.02;;;4.90;;
52854;SDS011;38719;51.418;7.286;2023-05-19T00:29:30;12.73;;;5.35;;
52854;SDS011;38719;51.418;7.286;2023-05-19T00:31:57;10.40;;;4.75;;
52854;SDS011;38719;51.418;7.286;2023-05-19T00:34:25;12.38;;;4.97;;
52854;SDS011;38719;51.418;7.286;2023-05-19T00:36:53;10.38;;;4.65;;
52854;SDS011;38719;51.418;7.286;2023-05-19T00:39:20;7.75;;;4.65;;
52854;SDS011;38719;51.418;7.286;2023-05-19T00:41:49;12.88;;;5.35;;
52854;SDS011;38719;51.418;7.286;2023-05-19T00:44:16;15.13;;;5.53;;
52854;SDS011;38719;51.418;7.286;2023-05-19T00:46:44;19.00;;;6.07;;
52854;SDS011;38719;51.418;7.286;2023-05-19T00:49:11;14.82;;;5.63;;
52854;SDS011;38719;51.418;7.286;2023-05-19T00:51:39;9.68;;;5.18;;
52854;SDS011;38719;51.418;7.286;2023-05-19T00:54:07;15.90;;;5.30;;
52854;SDS011;38719;51.418;7.286;2023-05-19T00:56:34;13.55;;;5.82;;
52854;SDS011;38719;51.418;7.286;2023-05-19T00:59:03;10.85;;;5.45;;
52854;SDS011;38719;51.418;7.286;2023-05-19T01:01:31;10.50;;;4.88;;
52854;SDS011;38719;51.418;7.286;2023-05-19T01:03:59;12.63;;;5.00;;
52854;SDS011;38719;51.418;7.286;2023-05-19T01:06:28;14.98;;;5.43;;
52854;SDS011;38719;51.418;7.286;2023-05-19T01:08:56;8.38;;;5.03;;
52854;SDS011;38719;51.418;7.286;2023-05-19T01:11:23;10.32;;;5.07;;
52854;SDS011;38719;51.418;7.286;2023-05-19T01:13:51;11.77;;;6.18;;
52854;SDS011;38719;51.418;7.286;2023-05-19T01:16:24;9.98;;;5.85;;
52854;SDS011;38719;51.418;7.286;2023-05-19T01:18:57;11.27;;;5.53;;
52854;SDS011;38719;51.418;7.286;2023-05-19T01:21:39;8.65;;;5.50;;
52854;SDS011;38719;51.418;7.286;2023-05-19T01:24:31;10.30;;;5.80;;
52854;SDS011;38719;51.418;7.286;2023-05-19T01:27:23;14.73;;;5.95;;
52854;SDS011;38719;51.418;7.286;2023-05-19T01:30:14;13.63;;;5.80;;
52854;SDS011;38719;51.418;7.286;2023-05-19T01:32:48;14.27;;;5.95;;
52854;SDS011;38719;51.418;7.286;2023-05-19T01:35:19;16.67;;;6.50;;
52854;SDS011;38719;51.418;7.286;2023-05-19T01:37:51;17.38;;;6.75;;
52854;SDS011;38719;51.418;7.286;2023-05-19T01:40:20;13.32;;;6.40;;
52854;SDS011;38719;51.418;7.286;2023-05-19T01:42:50;9.48;;;6.15;;
52854;SDS011;38719;51.418;7.286;2023-05-19T01:45:24;9.18;;;5.80;;
52854;SDS011;38719;51.418;7.286;2023-05-19T01:47:53;18.73;;;6.40;;
52854;SDS011;38719;51.418;7.286;2023-05-19T01:50:21;18.65;;;5.80;;
52854;SDS011;38719;51.418;7.286;2023-05-19T01:52:49;9.15;;;5.60;;
52854;SDS011;38719;51.418;7.286;2023-05-19T01:55:17;7.65;;;5.70;;
52854;SDS011;38719;51.418;7.286;2023-05-19T01:57:49;11.10;;;5.70;;
52854;SDS011;38719;51.418;7.286;2023-05-19T02:00:30;11.80;;;6.50;;
52854;SDS011;38719;51.418;7.286;2023-05-19T02:03:08;16.77;;;6.47;;
52854;SDS011;38719;51.418;7.286;2023-05-19T02:05:50;17.45;;;6.90;;
52854;SDS011;38719;51.418;7.286;2023-05-19T02:08:23;12.93;;;6.63;;
52854;SDS011;38719;51.418;7.286;2023-05-19T02:10:54;11.38;;;5.80;;
52854;SDS011;38719;51.418;7.286;2023-05-19T02:13:29;17.17;;;7.13;;
52854;SDS011;38719;51.418;7.286;2023-05-19T02:16:02;14.35;;;7.18;;
52854;SDS011;38719;51.418;7.286;2023-05-19T02:18:31;15.38;;;6.90;;
52854;SDS011;38719;51.418;7.286;2023-05-19T02:21:00;20.20;;;6.30;;
52854;SDS011;38719;51.418;7.286;2023-05-19T02:23:30;12.70;;;6.80;;
52854;SDS011;38719;51.418;7.286;2023-05-19T02:25:58;13.93;;;7.03;;
52854;SDS011;38719;51.418;7.286;2023-05-19T02:28:26;10.27;;;6.20;;
52854;SDS011;38719;51.418;7.286;2023-05-19T02:30:53;11.57;;;6.72;;
52854;SDS011;38719;51.418;7.286;2023-05-19T02:33:22;15.43;;;6.57;;
52854;SDS011;38719;51.418;7.286;2023-05-19T02:35:53;14.45;;;6.32;;
52854;SDS011;38719;51.418;7.286;2023-05-19T02:38:23;22.35;;;6.45;;
52854;SDS011;38719;51.418;7.286;2023-05-19T02:40:50;11.32;;;6.75;;
52854;SDS011;38719;51.418;7.286;2023-05-19T02:43:19;14.68;;;6.90;;
52854;SDS011;38719;51.418;7.286;2023-05-19T02:45:47;10.73;;;7.00;;
52854;SDS011;38719;51.418;7.286;2023-05-19T02:48:17;13.20;;;6.95;;
52854;SDS011;38719;51.418;7.286;2023-05-19T02:50:46;10.80;;;6.88;;
52854;SDS011;38719;51.418;7.286;2023-05-19T02:53:14;14.55;;;6.75;;
52854;SDS011;38719;51.418;7.286;2023-05-19T02:55:41;11.45;;;6.80;;
52854;SDS011;38719;51.418;7.286;2023-05-19T02:58:09;12.05;;;7.03;;
52854;SDS011;38719;51.418;7.286;2023-05-19T03:00:36;13.85;;;7.20;;
52854;SDS011;38719;51.418;7.286;2023-05-19T03:03:04;15.02;;;7.07;;
52854;SDS011;38719;51.418;7.286;2023-05-19T03:05:31;10.00;;;6.07;;
52854;SDS011;38719;51.418;7.286;2023-05-19T03:08:00;15.68;;;8.00;;
52854;SDS011;38719;51.418;7.286;2023-05-19T03:10:28;9.55;;;6.80;;
52854;SDS011;38719;51.418;7.286;2023-05-19T03:12:56;9.75;;;6.80;;
52854;SDS011;38719;51.418;7.286;2023-05-19T03:15:24;15.93;;;7.43;;
52854;SDS011;38719;51.418;7.286;2023-05-19T03:17:51;16.77;;;7.28;;
52854;SDS011;38719;51.418;7.286;2023-05-19T03:20:19;10.30;;;7.03;;
52854;SDS011;38719;51.418;7.286;2023-05-19T03:22:47;12.60;;;6.90;;
52854;SDS011;38719;51.418;7.286;2023-05-19T03:25:16;11.52;;;8.15;;
52854;SDS011;38719;51.418;7.286;2023-05-19T03:27:44;17.40;;;9.45;;
52854;SDS011;38719;51.418;7.286;2023-05-19T03:30:12;9.38;;;7.05;;
52854;SDS011;38719;51.418;7.286;2023-05-19T03:32:40;15.43;;;7.63;;
52854;SDS011;38719;51.418;7.286;2023-05-19T03:35:08;13.52;;;7.35;;
52854;SDS011;38719;51.418;7.286;2023-05-19T03:37:35;15.13;;;7.68;;
52854;SDS011;38719;51.418;7.286;2023-05-19T03:40:03;12.65;;;7.97;;
52854;SDS011;38719;51.418;7.286;2023-05-19T03:42:33;16.67;;;7.97;;
52854;SDS011;38719;51.418;7.286;2023-05-19T03:45:01;17.55;;;7.25;;
52854;SDS011;38719;51.418;7.286;2023-05-19T03:47:28;20.50;;;7.05;;
52854;SDS011;38719;51.418;7.286;2023-05-19T03:49:56;12.68;;;8.20;;
52854;SDS011;38719;51.418;7.286;2023-05-19T03:52:24;11.25;;;7.30;;
52854;SDS011;38719;51.418;7.286;2023-05-19T03:54:51;11.48;;;7.10;;
52854;SDS011;38719;51.418;7.286;2023-05-19T03:57:19;15.60;;;7.90;;
52854;SDS011;38719;51.418;7.286;2023-05-19T03:59:48;13.25;;;7.47;;
52854;SDS011;38719;51.418;7.286;2023-05-19T04:02:16;16.38;;;7.80;;
52854;SDS011;38719;51.418;7.286;2023-05-19T04:04:44;13.98;;;7.38;;
52854;SDS011;38719;51.418;7.286;2023-05-19T04:07:11;17.95;;;7.60;;
52854;SDS011;38719;51.418;7.286;2023-05-19T04:09:39;11.05;;;7.40;;
52854;SDS011;38719;51.418;7.286;2023-05-19T04:12:07;17.23;;;7.63;;
52854;SDS011;38719;51.418;7.286;2023-05-19T04:14:34;10.30;;;6.45;;
52854;SDS011;38719;51.418;7.286;2023-05-19T04:17:03;17.33;;;7.57;;
52854;SDS011;38719;51.418;7.286;2023-05-19T04:19:31;15.68;;;7.32;;
52854;SDS011;38719;51.418;7.286;2023-05-19T04:21:58;14.48;;;7.57;;
52854;SDS011;38719;51.418;7.286;2023-05-19T04:24:26;13.70;;;7.68;;
52854;SDS011;38719;51.418;7.286;2023-05-19T04:26:53;15.88;;;7.78;;
52854;SDS011;38719;51.418;7.286;2023-05-19T04:29:21;13.23;;;7.47;;
52854;SDS011;38719;51.418;7.286;2023-05-19T04:31:49;12.95;;;7.30;;
52854;SDS011;38719;51.418;7.286;2023-05-19T04:34:21;12.25;;;7.88;;
52854;SDS011;38719;51.418;7.286;2023-05-19T04:36:48;16.90;;;7.68;;
52854;SDS011;38719;51.418;7.286;2023-05-19T04:39:18;17.23;;;8.25;;
52854;SDS011;38719;51.418;7.286;2023-05-19T04:41:46;14.27;;;7.95;;
52854;SDS011;38719;51.418;7.286;2023-05-19T04:44:14;15.52;;;7.80;;
52854;SDS011;38719;51.418;7.286;2023-05-19T04:46:43;15.90;;;7.68;;
52854;SDS011;38719;51.418;7.286;2023-05-19T04:49:11;14.40;;;7.18;;
52854;SDS011;38719;51.418;7.286;2023-05-19T04:51:40;11.40;;;7.20;;
52854;SDS011;38719;51.418;7.286;2023-05-19T04:54:08;13.43;;;7.30;;
52854;SDS011;38719;51.418;7.286;2023-05-19T04:56:35;17.48;;;7.63;;
52854;SDS011;38719;51.418;7.286;2023-05-19T04:59:03;22.95;;;7.80;;
52854;SDS011;38719;51.418;7.286;2023-05-19T05:01:31;14.15;;;8.15;;
52854;SDS011;38719;51.418;7.286;2023-05-19T05:03:59;18.70;;;8.20;;
52854;SDS011;38719;51.418;7.286;2023-05-19T05:06:28;19.23;;;8.20;;
52854;SDS011;38719;51.418;7.286;2023-05-19T05:08:58;18.70;;;8.90;;
52854;SDS011;38719;51.418;7.286;2023-05-19T05:11:26;25.65;;;9.60;;
52854;SDS011;38719;51.418;7.286;2023-05-19T05:13:54;18.55;;;8.63;;
52854;SDS011;38719;51.418;7.286;2023-05-19T05:16:23;21.45;;;9.23;;
52854;SDS011;38719;51.418;7.286;2023-05-19T05:18:52;21.92;;;9.55;;
52854;SDS011;38719;51.418;7.286;2023-05-19T05:21:20;15.30;;;8.73;;
52854;SDS011;38719;51.418;7.286;2023-05-19T05:23:49;19.58;;;8.90;;
52854;SDS011;38719;51.418;7.286;2023-05-19T05:26:18;16.90;;;8.20;;
52854;SDS011;38719;51.418;7.286;2023-05-19T05:28:48;14.18;;;8.38;;
52854;SDS011;38719;51.418;7.286;2023-05-19T05:31:16;18.60;;;7.70;;
52854;SDS011;38719;51.418;7.286;2023-05-19T05:33:43;16.88;;;7.38;;
52854;SDS011;38719;51.418;7.286;2023-05-19T05:36:11;16.17;;;7.90;;
52854;SDS011;38719;51.418;7.286;2023-05-19T05:38:39;17.23;;;7.55;;
52854;SDS011;38719;51.418;7.286;2023-05-19T05:41:07;21.92;;;7.80;;
52854;SDS011;38719;51.418;7.286;2023-05-19T05:43:36;11.35;;;6.93;;
52854;SDS011;38719;51.418;7.286;2023-05-19T05:46:03;16.30;;;6.88;;
52854;SDS011;38719;51.418;7.286;2023-05-19T05:48:31;13.20;;;6.82;;
52854;SDS011;38719;51.418;7.286;2023-05-19T05:50:59;15.25;;;6.95;;
52854;SDS011;38719;51.418;7.286;2023-05-19T05:53:28;18.40;;;7.43;;
52854;SDS011;38719;51.418;7.286;2023-05-19T05:55:57;23.23;;;8.18;;
52854;SDS011;38719;51.418;7.286;2023-05-19T05:58:25;18.65;;;8.57;;
52854;SDS011;38719;51.418;7.286;2023-05-19T06:00:55;15.27;;;8.00;;
52854;SDS011;38719;51.418;7.286;2023-05-19T06:03:23;17.98;;;7.90;;
52854;SDS011;38719;51.418;7.286;2023-05-19T06:05:51;17.25;;;8.27;;
52854;SDS011;38719;51.418;7.286;2023-05-19T06:08:19;16.38;;;7.35;;
52854;SDS011;38719;51.418;7.286;2023-05-19T06:10:47;15.93;;;7.70;;
52854;SDS011;38719;51.418;7.286;2023-05-19T06:13:14;12.68;;;7.10;;
52854;SDS011;38719;51.418;7.286;2023-05-19T06:15:47;13.60;;;6.45;;
52854;SDS011;38719;51.418;7.286;2023-05-19T06:18:16;10.95;;;7.20;;
52854;SDS011;38719;51.418;7.286;2023-05-19T06:20:43;14.88;;;7.03;;
52854;SDS011;38719;51.418;7.286;2023-05-19T06:23:11;15.60;;;7.35;;
52854;SDS011;38719;51.418;7.286;2023-05-19T06:25:38;15.50;;;6.80;;
52854;SDS011;38719;51.418;7.286;2023-05-19T06:28:06;19.73;;;6.68;;
52854;SDS011;38719;51.418;7.286;2023-05-19T06:30:34;14.48;;;6.88;;
52854;SDS011;38719;51.418;7.286;2023-05-19T06:33:02;15.70;;;6.35;;
52854;SDS011;38719;51.418;7.286;2023-05-19T06:35:31;11.00;;;5.85;;
52854;SDS011;38719;51.418;7.286;2023-05-19T06:37:59;17.27;;;6.18;;
52854;SDS011;38719;51.418;7.286;2023-05-19T06:40:26;11.82;;;6.20;;
52854;SDS011;38719;51.418;7.286;2023-05-19T06:42:54;16.92;;;7.25;;
52854;SDS011;38719;51.418;7.286;2023-05-19T06:45:22;17.50;;;6.43;;
52854;SDS011;38719;51.418;7.286;2023-05-19T06:47:49;12.02;;;5.68;;
52854;SDS011;38719;51.418;7.286;2023-05-19T06:50:17;14.43;;;6.00;;
52854;SDS011;38719;51.418;7.286;2023-05-19T06:52:46;11.68;;;6.10;;
52854;SDS011;38719;51.418;7.286;2023-05-19T06:55:13;16.42;;;5.75;;
52854;SDS011;38719;51.418;7.286;2023-05-19T06:57:41;11.02;;;5.50;;
52854;SDS011;38719;51.418;7.286;2023-05-19T07:00:09;13.02;;;6.03;;
52854;SDS011;38719;51.418;7.286;2023-05-19T07:02:43;17.73;;;6.18;;
52854;SDS011;38719;51.418;7.286;2023-05-19T07:05:11;13.15;;;6.07;;
52854;SDS011;38719;51.418;7.286;2023-05-19T07:07:38;13.32;;;5.68;;
52854;SDS011;38719;51.418;7.286;2023-05-19T07:10:09;10.23;;;5.82;;
52854;SDS011;38719;51.418;7.286;2023-05-19T07:12:37;8.93;;;5.15;;
52854;SDS011;38719;51.418;7.286;2023-05-19T07:15:05;10.48;;;4.68;;
52854;SDS011;38719;51.418;7.286;2023-05-19T07:17:33;10.93;;;5.00;;
52854;SDS011;38719;51.418;7.286;2023-05-19T07:20:01;10.38;;;4.60;;
52854;SDS011;38719;51.418;7.286;2023-05-19T07:22:31;9.10;;;4.22;;
52854;SDS011;38719;51.418;7.286;2023-05-19T07:25:00;8.45;;;4.45;;
52854;SDS011;38719;51.418;7.286;2023-05-19T07:27:29;11.68;;;4.50;;
52854;SDS011;38719;51.418;7.286;2023-05-19T07:29:57;8.77;;;4.22;;
52854;SDS011;38719;51.418;7.286;2023-05-19T07:32:24;12.35;;;3.90;;
52854;SDS011;38719;51.418;7.286;2023-05-19T07:34:52;8.05;;;4.15;;
52854;SDS011;38719;51.418;7.286;2023-05-19T07:37:20;11.32;;;4.18;;
52854;SDS011;38719;51.418;7.286;2023-05-19T07:39:47;7.03;;;3.80;;
52854;SDS011;38719;51.418;7.286;2023-05-19T07:42:15;11.13;;;4.25;;
52854;SDS011;38719;51.418;7.286;2023-05-19T07:44:44;11.25;;;4.28;;
52854;SDS011;38719;51.418;7.286;2023-05-19T07:47:11;6.50;;;3.40;;
52854;SDS011;38719;51.418;7.286;2023-05-19T07:49:39;8.88;;;3.85;;
52854;SDS011;38719;51.418;7.286;2023-05-19T07:52:06;7.90;;;4.03;;
52854;SDS011;38719;51.418;7.286;2023-05-19T07:54:34;7.07;;;3.78;;
52854;SDS011;38719;51.418;7.286;2023-05-19T07:57:01;5.47;;;3.38;;
52854;SDS011;38719;51.418;7.286;2023-05-19T07:59:29;8.70;;;3.33;;
52854;SDS011;38719;51.418;7.286;2023-05-19T08:01:58;8.95;;;3.53;;
52854;SDS011;38719;51.418;7.286;2023-05-19T08:04:26;12.05;;;3.65;;
52854;SDS011;38719;51.418;7.286;2023-05-19T08:06:54;8.82;;;3.72;;
52854;SDS011;38719;51.418;7.286;2023-05-19T08:09:21;9.98;;;3.40;;
52854;SDS011;38719;51.418;7.286;2023-05-19T08:11:49;9.65;;;3.40;;
52854;SDS011;38719;51.418;7.286;2023-05-19T08:14:16;4.13;;;3.17;;
52854;SDS011;38719;51.418;7.286;2023-05-19T08:16:44;10.13;;;3.50;;
52854;SDS011;38719;51.418;7.286;2023-05-19T08:19:13;11.23;;;3.63;;
52854;SDS011;38719;51.418;7.286;2023-05-19T08:21:41;12.73;;;4.05;;
52854;SDS011;38719;51.418;7.286;2023-05-19T08:24:09;6.20;;;3.42;;
52854;SDS011;38719;51.418;7.286;2023-05-19T08:26:37;8.73;;;3.22;;
52854;SDS011;38719;51.418;7.286;2023-05-19T08:29:05;4.97;;;3.08;;
52854;SDS011;38719;51.418;7.286;2023-05-19T08:31:32;8.93;;;3.78;;
52854;SDS011;38719;51.418;7.286;2023-05-19T08:34:00;10.95;;;3.75;;
52854;SDS011;38719;51.418;7.286;2023-05-19T08:36:29;8.13;;;3.42;;
52854;SDS011;38719;51.418;7.286;2023-05-19T08:38:59;9.43;;;3.85;;
52854;SDS011;38719;51.418;7.286;2023-05-19T08:41:26;6.88;;;2.90;;
52854;SDS011;38719;51.418;7.286;2023-05-19T08:43:54;6.38;;;2.67;;
52854;SDS011;38719;51.418;7.286;2023-05-19T08:46:21;6.75;;;2.67;;
52854;SDS011;38719;51.418;7.286;2023-05-19T08:48:52;11.73;;;3.47;;
52854;SDS011;38719;51.418;7.286;2023-05-19T08:51:24;12.68;;;3.22;;
52854;SDS011;38719;51.418;7.286;2023-05-19T08:53:59;7.03;;;3.20;;
52854;SDS011;38719;51.418;7.286;2023-05-19T08:56:35;5.88;;;2.90;;
52854;SDS011;38719;51.418;7.286;2023-05-19T08:59:04;5.30;;;2.38;;
52854;SDS011;38719;51.418;7.286;2023-05-19T09:01:33;5.85;;;2.60;;
52854;SDS011;38719;51.418;7.286;2023-05-19T09:04:02;5.82;;;3.03;;
52854;SDS011;38719;51.418;7.286;2023-05-19T09:06:30;9.18;;;3.28;;
52854;SDS011;38719;51.418;7.286;2023-05-19T09:08:59;7.15;;;3.05;;
52854;SDS011;38719;51.418;7.286;2023-05-19T09:11:27;7.95;;;3.00;;
52854;SDS011;38719;51.418;7.286;2023-05-19T09:13:55;9.05;;;3.05;;
52854;SDS011;38719;51.418;7.286;2023-05-19T09:16:23;8.82;;;3.10;;
52854;SDS011;38719;51.418;7.286;2023-05-19T09:18:55;5.03;;;2.60;;
52854;SDS011;38719;51.418;7.286;2023-05-19T09:21:27;6.07;;;2.80;;
52854;SDS011;38719;51.418;7.286;2023-05-19T09:23:56;4.57;;;2.50;;
52854;SDS011;38719;51.418;7.286;2023-05-19T09:26:26;6.10;;;2.92;;
52854;SDS011;38719;51.418;7.286;2023-05-19T09:29:09;5.45;;;2.63;;
52854;SDS011;38719;51.418;7.286;2023-05-19T09:31:37;5.13;;;2.65;;
52854;SDS011;38719;51.418;7.286;2023-05-19T09:34:10;7.63;;;2.55;;
52854;SDS011;38719;51.418;7.286;2023-05-19T09:36:38;8.52;;;2.40;;
52854;SDS011;38719;51.418;7.286;2023-05-19T09:39:13;6.90;;;2.30;;
52854;SDS011;38719;51.418;7.286;2023-05-19T09:41:42;6.70;;;2.60;;
52854;SDS011;38719;51.418;7.286;2023-05-19T09:44:11;7.22;;;2.60;;
52854;SDS011;38719;51.418;7.286;2023-05-19T09:46:46;4.47;;;2.20;;
52854;SDS011;38719;51.418;7.286;2023-05-19T09:49:17;6.88;;;2.72;;
52854;SDS011;38719;51.418;7.286;2023-05-19T09:51:47;9.80;;;2.83;;
52854;SDS011;38719;51.418;7.286;2023-05-19T09:54:15;5.13;;;3.05;;
52854;SDS011;38719;51.418;7.286;2023-05-19T09:56:44;4.80;;;2.42;;
52854;SDS011;38719;51.418;7.286;2023-05-19T09:59:12;8.48;;;2.65;;
52854;SDS011;38719;51.418;7.286;2023-05-19T10:01:41;8.02;;;2.65;;
52854;SDS011;38719;51.418;7.286;2023-05-19T10:04:12;6.75;;;2.35;;
52854;SDS011;38719;51.418;7.286;2023-05-19T10:06:41;7.78;;;2.67;;
52854;SDS011;38719;51.418;7.286;2023-05-19T10:09:11;7.95;;;2.67;;
52854;SDS011;38719;51.418;7.286;2023-05-19T10:11:39;5.38;;;2.70;;
52854;SDS011;38719;51.418;7.286;2023-05-19T10:14:09;5.28;;;2.42;;
52854;SDS011;38719;51.418;7.286;2023-05-19T10:16:36;5.32;;;2.25;;
52854;SDS011;38719;51.418;7.286;2023-05-19T10:19:05;4.55;;;2.30;;
52854;SDS011;38719;51.418;7.286;2023-05-19T10:21:34;11.40;;;2.60;;
52854;SDS011;38719;51.418;7.286;2023-05-19T10:24:01;6.72;;;2.80;;
52854;SDS011;38719;51.418;7.286;2023-05-19T10:26:30;4.53;;;2.20;;
52854;SDS011;38719;51.418;7.286;2023-05-19T10:28:58;6.40;;;2.60;;
52854;SDS011;38719;51.418;7.286;2023-05-19T10:31:29;6.80;;;2.40;;
52854;SDS011;38719;51.418;7.286;2023-05-19T10:34:02;11.07;;;2.70;;
52854;SDS011;38719;51.418;7.286;2023-05-19T10:36:42;6.18;;;2.53;;
52854;SDS011;38719;51.418;7.286;2023-05-19T10:39:15;6.57;;;2.70;;
52854;SDS011;38719;51.418;7.286;2023-05-19T10:41:46;4.97;;;2.70;;
52854;SDS011;38719;51.418;7.286;2023-05-19T10:44:22;5.53;;;2.72;;
52854;SDS011;38719;51.418;7.286;2023-05-19T10:46:59;20.80;;;3.80;;
52854;SDS011;38719;51.418;7.286;2023-05-19T10:49:26;5.03;;;2.72;;
52854;SDS011;38719;51.418;7.286;2023-05-19T10:51:54;8.38;;;2.45;;
52854;SDS011;38719;51.418;7.286;2023-05-19T10:54:38;9.13;;;2.83;;
52854;SDS011;38719;51.418;7.286;2023-05-19T10:57:08;5.63;;;2.70;;
52854;SDS011;38719;51.418;7.286;2023-05-19T10:59:40;7.85;;;3.47;;
52854;SDS011;38719;51.418;7.286;2023-05-19T11:02:35;8.82;;;2.53;;
52854;SDS011;38719;51.418;7.286;2023-05-19T11:05:07;16.27;;;3.05;;
52854;SDS011;38719;51.418;7.286;2023-05-19T11:07:35;10.02;;;2.47;;
52854;SDS011;38719;51.418;7.286;2023-05-19T11:10:06;5.38;;;2.33;;
52854;SDS011;38719;51.418;7.286;2023-05-19T11:12:40;12.50;;;2.55;;
52854;SDS011;38719;51.418;7.286;2023-05-19T11:17:39;5.05;;;2.75;;
52854;SDS011;38719;51.418;7.286;2023-05-19T11:20:08;6.28;;;2.78;;
52854;SDS011;38719;51.418;7.286;2023-05-19T11:23:02;6.50;;;2.83;;
52854;SDS011;38719;51.418;7.286;2023-05-19T11:25:42;6.90;;;2.67;;
52854;SDS011;38719;51.418;7.286;2023-05-19T11:28:12;7.20;;;2.63;;
52854;SDS011;38719;51.418;7.286;2023-05-19T11:30:43;5.95;;;2.88;;
52854;SDS011;38719;51.418;7.286;2023-05-19T11:33:12;8.95;;;2.53;;
52854;SDS011;38719;51.418;7.286;2023-05-19T11:35:40;6.32;;;2.65;;
52854;SDS011;38719;51.418;7.286;2023-05-19T11:38:09;9.82;;;2.55;;
52854;SDS011;38719;51.418;7.286;2023-05-19T11:40:37;7.55;;;2.95;;
52854;SDS011;38719;51.418;7.286;2023-05-19T11:43:07;5.50;;;2.65;;
52854;SDS011;38719;51.418;7.286;2023-05-19T11:45:35;9.50;;;2.58;;
52854;SDS011;38719;51.418;7.286;2023-05-19T11:48:03;7.40;;;2.50;;
52854;SDS011;38719;51.418;7.286;2023-05-19T11:50:33;4.95;;;2.55;;
52854;SDS011;38719;51.418;7.286;2023-05-19T11:53:03;8.05;;;2.55;;
52854;SDS011;38719;51.418;7.286;2023-05-19T11:55:31;10.50;;;2.42;;
52854;SDS011;38719;51.418;7.286;2023-05-19T11:57:59;8.90;;;3.10;;
52854;SDS011;38719;51.418;7.286;2023-05-19T12:00:33;14.23;;;3.40;;
52854;SDS011;38719;51.418;7.286;2023-05-19T12:03:02;9.90;;;3.70;;
52854;SDS011;38719;51.418;7.286;2023-05-19T12:05:31;11.25;;;3.60;;
52854;SDS011;38719;51.418;7.286;2023-05-19T12:08:05;6.03;;;2.65;;
52854;SDS011;38719;51.418;7.286;2023-05-19T12:10:33;4.40;;;2.33;;
52854;SDS011;38719;51.418;7.286;2023-05-19T12:13:01;8.48;;;2.30;;
52854;SDS011;38719;51.418;7.286;2023-05-19T12:15:29;5.00;;;2.47;;
52854;SDS011;38719;51.418;7.286;2023-05-19T12:17:58;3.85;;;2.50;;
52854;SDS011;38719;51.418;7.286;2023-05-19T12:20:27;9.07;;;3.00;;
52854;SDS011;38719;51.418;7.286;2023-05-19T12:22:57;7.90;;;2.70;;
52854;SDS011;38719;51.418;7.286;2023-05-19T12:25:28;5.95;;;3.00;;
52854;SDS011;38719;51.418;7.286;2023-05-19T12:27:57;5.57;;;2.40;;
52854;SDS011;38719;51.418;7.286;2023-05-19T12:30:25;9.32;;;2.65;;
52854;SDS011;38719;51.418;7.286;2023-05-19T12:32:54;4.20;;;2.50;;
52854;SDS011;38719;51.418;7.286;2023-05-19T12:35:24;6.90;;;2.30;;
52854;SDS011;38719;51.418;7.286;2023-05-19T12:37:55;3.85;;;2.28;;
52854;SDS011;38719;51.418;7.286;2023-05-19T12:40:22;5.68;;;2.17;;
52854;SDS011;38719;51.418;7.286;2023-05-19T12:42:54;5.25;;;2.42;;
52854;SDS011;38719;51.418;7.286;2023-05-19T12:45:24;14.70;;;2.83;;
52854;SDS011;38719;51.418;7.286;2023-05-19T12:47:53;12.18;;;2.72;;
52854;SDS011;38719;51.418;7.286;2023-05-19T12:50:28;5.80;;;2.63;;
52854;SDS011;38719;51.418;7.286;2023-05-19T12:52:56;32.03;;;3.40;;
52854;SDS011;38719;51.418;7.286;2023-05-19T12:55:25;29.27;;;3.25;;
52854;SDS011;38719;51.418;7.286;2023-05-19T12:57:54;5.70;;;2.40;;
52854;SDS011;38719;51.418;7.286;2023-05-19T13:00:23;4.15;;;2.00;;
52854;SDS011;38719;51.418;7.286;2023-05-19T13:02:55;9.95;;;2.47;;
52854;SDS011;38719;51.418;7.286;2023-05-19T13:05:25;5.13;;;2.63;;
52854;SDS011;38719;51.418;7.286;2023-05-19T13:07:56;4.97;;;2.40;;
52854;SDS011;38719;51.418;7.286;2023-05-19T13:10:25;4.13;;;2.55;;
52854;SDS011;38719;51.418;7.286;2023-05-19T13:12:55;4.50;;;2.20;;
52854;SDS011;38719;51.418;7.286;2023-05-19T13:15:24;3.85;;;2.10;;
52854;SDS011;38719;51.418;7.286;2023-05-19T13:17:53;7.72;;;2.50;;
52854;SDS011;38719;51.418;7.286;2023-05-19T13:20:21;11.23;;;2.45;;
52854;SDS011;38719;51.418;7.286;2023-05-19T13:22:50;6.50;;;2.50;;
52854;SDS011;38719;51.418;7.286;2023-05-19T13:25:18;4.38;;;2.10;;
52854;SDS011;38719;51.418;7.286;2023-05-19T13:27:46;4.20;;;2.33;;
52854;SDS011;38719;51.418;7.286;2023-05-19T13:30:16;6.80;;;2.22;;
52854;SDS011;38719;51.418;7.286;2023-05-19T13:32:44;4.05;;;2.55;;
52854;SDS011;38719;51.418;7.286;2023-05-19T13:35:12;6.90;;;2.40;;
52854;SDS011;38719;51.418;7.286;2023-05-19T13:37:40;5.93;;;2.53;;
52854;SDS011;38719;51.418;7.286;2023-05-19T13:40:14;6.03;;;2.30;;
52854;SDS011;38719;51.418;7.286;2023-05-19T13:42:43;6.75;;;2.63;;
52854;SDS011;38719;51.418;7.286;2023-05-19T13:45:11;5.20;;;2.22;;
52854;SDS011;38719;51.418;7.286;2023-05-19T13:47:39;2.90;;;1.88;;
52854;SDS011;38719;51.418;7.286;2023-05-19T13:50:07;4.82;;;2.63;;
52854;SDS011;38719;51.418;7.286;2023-05-19T13:52:35;6.55;;;2.38;;
52854;SDS011;38719;51.418;7.286;2023-05-19T13:55:03;4.85;;;2.20;;
52854;SDS011;38719;51.418;7.286;2023-05-19T13:57:32;4.57;;;2.20;;
52854;SDS011;38719;51.418;7.286;2023-05-19T14:00:00;14.02;;;2.70;;
52854;SDS011;38719;51.418;7.286;2023-05-19T14:02:29;6.28;;;2.22;;
52854;SDS011;38719;51.418;7.286;2023-05-19T14:04:59;12.35;;;2.53;;
52854;SDS011;38719;51.418;7.286;2023-05-19T14:07:26;3.58;;;2.13;;
52854;SDS011;38719;51.418;7.286;2023-05-19T14:09:54;4.07;;;2.28;;
52854;SDS011;38719;51.418;7.286;2023-05-19T14:12:22;38.88;;;3.63;;
52854;SDS011;38719;51.418;7.286;2023-05-19T14:15:05;3.83;;;2.50;;
52854;SDS011;38719;51.418;7.286;2023-05-19T14:17:34;4.57;;;2.17;;
52854;SDS011;38719;51.418;7.286;2023-05-19T14:20:04;8.35;;;2.25;;
52854;SDS011;38719;51.418;7.286;2023-05-19T14:22:32;8.57;;;2.40;;
52854;SDS011;38719;51.418;7.286;2023-05-19T14:25:00;5.25;;;2.20;;
52854;SDS011;38719;51.418;7.286;2023-05-19T14:27:28;5.65;;;2.10;;
52854;SDS011;38719;51.418;7.286;2023-05-19T14:29:55;6.80;;;2.45;;
52854;SDS011;38719;51.418;7.286;2023-05-19T14:32:23;12.65;;;2.63;;
52854;SDS011;38719;51.418;7.286;2023-05-19T14:34:55;5.28;;;2.28;;
52854;SDS011;38719;51.418;7.286;2023-05-19T14:37:24;3.47;;;2.25;;
52854;SDS011;38719;51.418;7.286;2023-05-19T14:39:55;8.98;;;2.40;;
52854;SDS011;38719;51.418;7.286;2023-05-19T14:42:23;4.97;;;2.45;;
52854;SDS011;38719;51.418;7.286;2023-05-19T14:44:51;9.43;;;2.58;;
52854;SDS011;38719;51.418;7.286;2023-05-19T14:47:18;17.15;;;4.95;;
52854;SDS011;38719;51.418;7.286;2023-05-19T14:49:46;5.53;;;2.95;;
52854;SDS011;38719;51.418;7.286;2023-05-19T14:52:14;18.60;;;3.25;;
52854;SDS011;38719;51.418;7.286;2023-05-19T14:54:44;8.10;;;2.35;;
52854;SDS011;38719;51.418;7.286;2023-05-19T14:57:11;4.03;;;2.28;;